KFYG

Washington Regional Airport

Washington, Missouri, USA
METAR KFYG 212055Z AUTO 23006KT 10SM CLR 14/M04 A3024 RMK AO2
Observed Flight Rules
Oct-21 @ 20:55 UTC (an hour ago) Visual Flight Rules
Wind Visibility Clouds
230° at 6 knots 10 miles
  • Clear skies
Temperatures Readings
Current 14°C / 57°F
Dewpoint -4°C / 25°F
Humidity 29%
Altimeter 30.24" Hg
Pressure 1024 hPa
Elevation 149
METAR KFYG 212055Z AUTO 23006KT 10SM CLR 14/M04 A3024 RMK AO2
Observed Flight Rules
Oct-21 @ 20:55 UTC
(an hour ago)
VFR
Wind Visibility
230° at 6 knots 10 miles
Clouds
  • Clear skies
Temperature Dewpoint
14°C / 57°F -4°C / 25°F
Humidity Altimeter Pressure
29% 30.24" Hg 1024 hPa